Time;durP1;ratioP1;P1;durP2;ratioP2;P2;SDS_P1;SDS_P2;PMS_P1;PMS_P2;Temp;Humidity;BMP_temperature;BMP_pressure;BME280_temperature;BME280_humidity;BME280_pressure;Samples;Min_cycle;Max_cycle;Signal;HPM_P1;HPM_P2
2022/09/23 00:00:41;;;;;;;8.88;7.38;;;10.30;99.90;;;;;;4988092;28;20536;-95
2022/09/23 00:03:07;;;;;;;9.85;6.90;;;10.30;99.90;;;;;;4982458;28;20183;-91
2022/09/23 00:05:34;;;;;;;11.90;8.20;;;10.30;99.90;;;;;;4982499;28;20262;-91
2022/09/23 00:08:00;;;;;;;14.00;9.60;;;10.30;99.90;;;;;;5000943;28;20211;-91
2022/09/23 00:10:27;;;;;;;11.25;8.52;;;10.30;99.90;;;;;;4983252;28;20610;-92
2022/09/23 00:12:57;;;;;;;13.88;10.45;;;10.30;99.90;;;;;;4984107;28;20246;-91
2022/09/23 00:15:24;;;;;;;12.50;9.77;;;10.20;99.90;;;;;;4982506;28;20231;-94
2022/09/23 00:17:50;;;;;;;15.20;10.52;;;10.20;99.90;;;;;;4982880;28;20220;-91
2022/09/23 00:20:16;;;;;;;14.85;10.98;;;10.20;99.90;;;;;;4982656;28;20196;-95
2022/09/23 00:22:42;;;;;;;13.27;8.85;;;10.20;99.90;;;;;;4986887;28;20184;-92
2022/09/23 00:25:10;;;;;;;10.38;8.82;;;10.30;99.90;;;;;;5000256;28;20546;-95
2022/09/23 00:27:36;;;;;;;12.60;9.35;;;10.30;99.90;;;;;;5000510;28;20183;-91
2022/09/23 00:30:04;;;;;;;11.50;8.48;;;10.30;99.90;;;;;;4983204;28;20208;-90
2022/09/23 00:32:30;;;;;;;12.65;8.27;;;10.30;99.90;;;;;;4998910;28;20188;-91
2022/09/23 00:34:56;;;;;;;11.87;9.07;;;10.30;99.90;;;;;;4984411;28;20267;-96
2022/09/23 00:37:21;;;;;;;10.57;9.10;;;10.20;99.90;;;;;;4982737;28;20273;-90
2022/09/23 00:39:47;;;;;;;11.27;8.93;;;10.20;99.90;;;;;;4982464;28;20701;-95
2022/09/23 00:42:16;;;;;;;9.83;8.40;;;10.20;99.90;;;;;;4982537;28;20176;-95
2022/09/23 00:44:48;;;;;;;10.10;8.85;;;10.20;99.90;;;;;;5004289;28;20203;-91
2022/09/23 00:47:28;;;;;;;12.55;8.55;;;10.10;99.90;;;;;;4998850;28;20172;-95
2022/09/23 00:50:16;;;;;;;11.55;9.10;;;10.10;99.90;;;;;;5002595;28;20204;-93
2022/09/23 00:52:46;;;;;;;8.93;7.07;;;10.10;99.90;;;;;;4985093;28;20660;-96
2022/09/23 00:55:25;;;;;;;8.57;6.60;;;10.10;99.90;;;;;;5001044;28;20204;-95
2022/09/23 00:57:57;;;;;;;8.35;6.35;;;10.00;99.90;;;;;;4987855;28;20207;-96
2022/09/23 01:00:23;;;;;;;8.90;6.82;;;10.00;99.90;;;;;;5003754;28;20594;-94
2022/09/23 01:02:50;;;;;;;7.80;5.82;;;9.90;99.90;;;;;;5002551;28;20188;-91
2022/09/23 01:05:17;;;;;;;7.97;5.88;;;9.90;99.90;;;;;;4982084;28;20200;-92
2022/09/23 01:07:48;;;;;;;8.32;6.55;;;9.80;99.90;;;;;;4981189;28;20207;-91
2022/09/23 01:10:20;;;;;;;8.20;6.68;;;9.70;99.90;;;;;;4998856;28;20231;-96
2022/09/23 01:13:07;;;;;;;10.73;6.43;;;9.70;99.90;;;;;;4999236;28;20633;-95
2022/09/23 01:16:06;;;;;;;8.45;6.80;;;9.60;99.90;;;;;;5005146;28;20710;-92
2022/09/23 01:18:55;;;;;;;12.23;7.25;;;9.60;99.90;;;;;;4999271;28;20271;-95
2022/09/23 01:21:53;;;;;;;7.72;6.43;;;9.50;99.90;;;;;;4981819;28;20268;-95
2022/09/23 01:24:36;;;;;;;9.60;6.93;;;9.50;99.90;;;;;;5000361;28;20200;-95
2022/09/23 01:27:18;;;;;;;8.65;7.22;;;9.40;99.90;;;;;;4999750;28;20171;-95
2022/09/23 01:30:05;;;;;;;7.03;6.00;;;9.40;99.90;;;;;;4982071;28;20732;-95
2022/09/23 01:32:47;;;;;;;9.05;7.03;;;9.40;99.90;;;;;;4981018;28;20172;-91
2022/09/23 01:35:29;;;;;;;7.80;6.40;;;9.40;99.90;;;;;;4982995;28;20301;-91
2022/09/23 01:38:06;;;;;;;9.57;6.90;;;9.40;99.90;;;;;;4982257;28;20214;-95
2022/09/23 01:40:58;;;;;;;7.80;7.00;;;9.40;99.90;;;;;;4991638;28;20235;-95
2022/09/23 01:43:32;;;;;;;8.95;6.30;;;9.30;99.90;;;;;;4981195;28;20179;-95
2022/09/23 01:46:02;;;;;;;9.48;6.97;;;9.30;99.90;;;;;;4998221;28;20199;-94
2022/09/23 01:48:33;;;;;;;9.32;6.15;;;9.30;99.90;;;;;;4981596;28;20258;-92
2022/09/23 01:51:08;;;;;;;8.98;6.50;;;9.30;99.90;;;;;;4980817;28;20287;-95
2022/09/23 01:53:52;;;;;;;9.45;6.60;;;9.20;99.90;;;;;;4986971;28;20167;-92
2022/09/23 01:56:34;;;;;;;7.43;6.68;;;9.20;99.90;;;;;;4998985;28;20180;-92
2022/09/23 01:59:38;;;;;;;12.85;6.90;;;9.20;99.90;;;;;;4981050;28;20222;-92
2022/09/23 02:02:19;;;;;;;7.88;6.82;;;9.20;99.90;;;;;;4937990;29;20177;-91
2022/09/23 02:04:59;;;;;;;8.48;6.38;;;9.20;99.90;;;;;;4977649;28;20235;-96
2022/09/23 02:07:34;;;;;;;8.82;6.32;;;9.10;99.90;;;;;;4981973;28;20175;-92
2022/09/23 02:10:23;;;;;;;9.13;6.85;;;9.10;99.90;;;;;;4996741;28;20731;-95
2022/09/23 02:12:56;;;;;;;6.95;6.25;;;9.10;99.90;;;;;;4998217;28;20626;-91
2022/09/23 02:15:27;;;;;;;9.20;6.90;;;9.00;99.90;;;;;;4998085;28;20209;-92
2022/09/23 02:18:14;;;;;;;7.53;6.32;;;9.00;99.90;;;;;;4982850;28;20220;-95
2022/09/23 02:20:40;;;;;;;7.38;5.85;;;9.00;99.90;;;;;;4980457;28;20207;-95
2022/09/23 02:23:19;;;;;;;11.27;7.20;;;8.90;99.90;;;;;;4981071;28;20266;-96
2022/09/23 02:26:01;;;;;;;7.47;6.30;;;8.90;99.90;;;;;;4998437;28;20218;-91
2022/09/23 02:28:46;;;;;;;8.77;7.00;;;8.90;99.90;;;;;;4984241;28;20182;-91
2022/09/23 02:31:27;;;;;;;9.20;6.95;;;8.90;99.90;;;;;;5000253;28;20212;-95
2022/09/23 02:34:37;;;;;;;8.50;6.10;;;8.90;99.90;;;;;;4980769;28;20629;-94
2022/09/23 02:37:20;;;;;;;7.47;6.20;;;8.90;99.90;;;;;;4922826;29;20252;-96
2022/09/23 02:40:08;;;;;;;10.88;7.68;;;8.80;99.90;;;;;;4979117;28;20240;-91
2022/09/23 02:42:48;;;;;;;8.88;6.35;;;8.80;99.90;;;;;;5003878;28;20168;-91
2022/09/23 02:45:14;;;;;;;10.38;6.45;;;8.70;99.90;;;;;;4982753;28;20254;-92
2022/09/23 02:47:44;;;;;;;10.73;6.53;;;8.70;99.90;;;;;;4980253;28;20180;-93
2022/09/23 02:50:10;;;;;;;8.50;7.13;;;8.70;99.90;;;;;;4980628;28;20441;-91
2022/09/23 02:52:37;;;;;;;8.20;6.40;;;8.70;99.90;;;;;;4980397;28;20679;-93
2022/09/23 02:55:05;;;;;;;10.98;7.13;;;8.60;99.90;;;;;;4979914;28;20441;-91
2022/09/23 02:57:31;;;;;;;9.75;7.10;;;8.60;99.90;;;;;;4999999;28;20204;-95
2022/09/23 02:59:57;;;;;;;12.07;8.75;;;8.60;99.90;;;;;;4980906;28;20210;-96
2022/09/23 03:03:01;;;;;;;8.75;6.68;;;8.60;99.90;;;;;;4995868;28;20270;-94
2022/09/23 03:05:30;;;;;;;13.75;7.50;;;8.60;99.90;;;;;;4978859;28;20211;-95
2022/09/23 03:08:24;;;;;;;11.38;7.45;;;8.60;99.90;;;;;;4980315;28;20191;-95
2022/09/23 03:11:04;;;;;;;13.20;6.82;;;8.70;99.90;;;;;;4993482;28;20200;-96
2022/09/23 03:13:41;;;;;;;10.18;7.28;;;8.70;99.90;;;;;;4997104;28;20752;-95
2022/09/23 03:16:26;;;;;;;10.65;7.65;;;8.70;99.90;;;;;;4983052;28;20185;-92
2022/09/23 03:19:05;;;;;;;9.13;7.10;;;8.80;99.90;;;;;;4981900;28;20226;-91
2022/09/23 03:21:38;;;;;;;19.40;8.90;;;8.80;99.90;;;;;;4980545;28;20175;-95
2022/09/23 03:24:07;;;;;;;9.73;7.32;;;8.90;99.90;;;;;;4981110;28;20250;-91
2022/09/23 03:26:36;;;;;;;9.68;7.60;;;8.90;99.90;;;;;;4979836;28;20179;-96
2022/09/23 03:29:05;;;;;;;9.20;7.32;;;8.90;99.90;;;;;;4996475;28;20215;-96
2022/09/23 03:31:32;;;;;;;11.45;7.90;;;9.00;99.90;;;;;;4980726;28;20244;-92
2022/09/23 03:34:02;;;;;;;10.88;8.10;;;9.00;99.90;;;;;;4984345;28;20187;-91
2022/09/23 03:36:52;;;;;;;10.57;7.97;;;9.10;99.90;;;;;;4987706;28;20179;-91
2022/09/23 03:39:26;;;;;;;8.88;6.32;;;9.10;99.90;;;;;;4983291;28;20246;-93
2022/09/23 03:41:55;;;;;;;9.93;8.13;;;9.10;99.90;;;;;;5001013;28;20558;-91
2022/09/23 03:44:22;;;;;;;10.85;8.43;;;9.20;99.90;;;;;;5001551;28;20204;-95
2022/09/23 03:46:51;;;;;;;12.18;7.78;;;9.20;99.90;;;;;;4983069;28;20191;-91
2022/09/23 03:49:23;;;;;;;12.77;8.10;;;9.20;99.90;;;;;;5003783;28;20203;-91
2022/09/23 03:51:49;;;;;;;10.00;7.60;;;9.20;99.90;;;;;;5000805;28;20537;-90
2022/09/23 03:54:14;;;;;;;11.43;8.00;;;9.20;99.90;;;;;;5002132;28;20283;-91
2022/09/23 03:56:40;;;;;;;14.40;9.67;;;9.30;99.90;;;;;;5003512;28;20199;-90
2022/09/23 03:59:06;;;;;;;12.15;8.48;;;9.30;99.90;;;;;;4992126;28;20215;-95
2022/09/23 04:01:32;;;;;;;10.33;9.10;;;9.30;99.90;;;;;;4994894;28;20182;-92
2022/09/23 04:03:58;;;;;;;11.03;7.70;;;9.30;99.90;;;;;;4989044;28;20476;-96
2022/09/23 04:06:24;;;;;;;12.30;8.23;;;9.30;99.90;;;;;;4985489;28;20175;-94
2022/09/23 04:08:50;;;;;;;12.80;8.33;;;9.40;99.90;;;;;;4988074;28;20323;-95
2022/09/23 04:11:16;;;;;;;14.33;10.83;;;9.40;99.90;;;;;;4983881;28;20187;-90
2022/09/23 04:13:44;;;;;;;11.57;8.00;;;9.40;99.90;;;;;;5000527;28;20543;-94
2022/09/23 04:16:10;;;;;;;12.52;8.10;;;9.40;99.90;;;;;;4985996;28;20187;-92
2022/09/23 04:18:35;;;;;;;13.00;8.00;;;9.40;99.90;;;;;;4980973;28;20298;-92
2022/09/23 04:21:01;;;;;;;14.40;7.57;;;9.50;99.90;;;;;;4982706;28;20203;-94
2022/09/23 04:23:27;;;;;;;12.03;8.87;;;9.50;99.90;;;;;;4998256;28;20178;-95
2022/09/23 04:25:53;;;;;;;10.55;7.90;;;9.50;99.90;;;;;;4999015;28;20626;-93
2022/09/23 04:28:20;;;;;;;16.60;10.40;;;9.50;99.90;;;;;;4981946;28;20589;-96
2022/09/23 04:30:47;;;;;;;12.85;9.57;;;9.60;99.90;;;;;;4985922;28;20234;-95
2022/09/23 04:33:13;;;;;;;12.65;9.02;;;9.70;99.90;;;;;;4996826;28;20271;-94
2022/09/23 04:35:42;;;;;;;15.15;12.57;;;9.70;99.90;;;;;;4997204;28;20204;-92
2022/09/23 04:38:09;;;;;;;11.50;8.50;;;9.70;99.90;;;;;;4980646;28;20673;-92
2022/09/23 04:40:35;;;;;;;12.98;9.65;;;9.80;99.90;;;;;;4993062;28;20227;-95
2022/09/23 04:43:01;;;;;;;11.80;9.17;;;9.80;99.90;;;;;;4995256;28;20649;-93
2022/09/23 04:45:28;;;;;;;14.27;9.03;;;9.80;99.90;;;;;;4989694;28;20218;-92
2022/09/23 04:47:54;;;;;;;16.55;11.45;;;9.90;99.90;;;;;;5002372;28;20435;-95
2022/09/23 04:50:20;;;;;;;10.50;9.00;;;9.90;99.90;;;;;;5006189;28;20207;-95
2022/09/23 04:52:46;;;;;;;14.50;9.53;;;9.90;99.90;;;;;;5001283;28;20247;-93
2022/09/23 04:55:11;;;;;;;14.13;8.97;;;9.90;99.90;;;;;;5001976;28;20674;-95
2022/09/23 04:57:37;;;;;;;19.73;9.67;;;9.90;99.90;;;;;;5022656;28;20217;-92
2022/09/23 05:00:03;;;;;;;14.97;8.00;;;9.90;99.90;;;;;;5004384;28;20262;-94
2022/09/23 05:02:30;;;;;;;14.80;8.95;;;9.90;99.90;;;;;;5017316;28;20804;-94
2022/09/23 05:04:57;;;;;;;13.00;9.15;;;10.00;99.90;;;;;;4999791;28;20210;-92
2022/09/23 05:07:23;;;;;;;15.57;10.13;;;9.90;99.90;;;;;;5002204;28;20600;-93
2022/09/23 05:09:48;;;;;;;11.27;8.35;;;10.00;99.90;;;;;;5016152;28;20210;-92
2022/09/23 05:12:14;;;;;;;10.03;8.27;;;10.00;99.90;;;;;;4999130;28;20175;-93
2022/09/23 05:14:40;;;;;;;11.43;8.50;;;10.00;99.90;;;;;;4980666;28;20299;-93
2022/09/23 05:17:05;;;;;;;11.83;7.33;;;10.00;99.90;;;;;;4962113;28;20634;-92
2022/09/23 05:19:31;;;;;;;10.13;7.90;;;10.00;99.90;;;;;;4968142;28;20204;-93
2022/09/23 05:21:57;;;;;;;11.70;7.60;;;10.00;99.90;;;;;;4967521;28;20415;-92
2022/09/23 05:24:23;;;;;;;9.87;7.63;;;10.00;99.90;;;;;;4967367;28;20299;-92
2022/09/23 05:26:50;;;;;;;9.52;7.30;;;10.00;99.90;;;;;;4968610;28;20204;-93
2022/09/23 05:29:16;;;;;;;13.45;7.20;;;10.00;99.90;;;;;;4963220;28;20216;-96
2022/09/23 05:31:42;;;;;;;9.90;7.03;;;9.90;99.90;;;;;;4964941;28;20709;-93
2022/09/23 05:34:07;;;;;;;10.30;7.23;;;9.90;99.90;;;;;;4985525;28;20184;-95
2022/09/23 05:36:35;;;;;;;7.17;6.37;;;9.90;99.90;;;;;;4986440;28;20191;-92
2022/09/23 05:39:01;;;;;;;9.50;6.72;;;9.90;99.90;;;;;;4989146;28;20267;-95
2022/09/23 05:41:27;;;;;;;8.95;7.10;;;9.90;99.90;;;;;;4985277;28;20200;-94
2022/09/23 05:43:54;;;;;;;11.40;6.70;;;9.90;99.90;;;;;;4980194;28;20193;-93
2022/09/23 05:46:27;;;;;;;9.05;7.20;;;9.90;99.90;;;;;;4978684;28;20183;-96
2022/09/23 05:48:54;;;;;;;9.85;7.18;;;9.90;99.90;;;;;;4993187;28;20276;-95
2022/09/23 05:51:23;;;;;;;9.65;6.78;;;10.00;99.90;;;;;;4993199;28;20545;-95
2022/09/23 05:53:51;;;;;;;9.45;7.15;;;10.00;99.90;;;;;;4978328;28;20540;-93
2022/09/23 05:56:20;;;;;;;13.55;8.65;;;10.10;99.90;;;;;;4995066;28;20183;-93
2022/09/23 05:58:48;;;;;;;11.27;8.48;;;10.10;99.90;;;;;;4970426;28;20219;-93
2022/09/23 06:01:17;;;;;;;15.15;9.80;;;10.20;99.90;;;;;;4976921;28;20661;-94
2022/09/23 06:03:49;;;;;;;13.63;9.07;;;10.20;99.90;;;;;;4982863;28;20207;-93
2022/09/23 06:06:17;;;;;;;12.95;9.65;;;10.30;99.90;;;;;;4976639;28;20544;-94
2022/09/23 06:08:44;;;;;;;15.88;10.10;;;10.40;99.90;;;;;;4995555;28;20184;-95
2022/09/23 06:11:11;;;;;;;10.68;8.65;;;10.40;99.90;;;;;;4982145;28;20187;-95
2022/09/23 06:13:37;;;;;;;14.05;10.65;;;10.50;99.90;;;;;;4979292;28;20259;-93
2022/09/23 06:16:04;;;;;;;11.52;9.20;;;10.60;99.90;;;;;;4978890;28;20200;-92
2022/09/23 06:18:30;;;;;;;13.80;9.95;;;10.60;99.90;;;;;;4995370;28;20671;-95
2022/09/23 06:21:03;;;;;;;15.40;10.80;;;10.70;99.90;;;;;;4976640;28;20239;-93
2022/09/23 06:23:29;;;;;;;10.15;9.05;;;10.80;99.90;;;;;;4976650;28;20246;-95
2022/09/23 06:26:01;;;;;;;14.82;10.25;;;10.90;99.90;;;;;;4994747;28;20234;-94
2022/09/23 06:28:32;;;;;;;13.85;10.18;;;11.00;99.90;;;;;;4983128;28;20178;-93
2022/09/23 06:30:59;;;;;;;15.73;11.07;;;11.00;99.90;;;;;;4997304;28;20207;-92
2022/09/23 06:33:26;;;;;;;13.18;9.85;;;11.10;99.90;;;;;;4975023;28;20184;-93
2022/09/23 06:35:59;;;;;;;54.40;30.13;;;11.20;99.90;;;;;;4968500;28;20211;-92
2022/09/23 06:38:26;;;;;;;15.50;10.95;;;11.30;99.90;;;;;;4989755;28;20216;-92
2022/09/23 06:40:54;;;;;;;17.48;11.27;;;11.40;99.90;;;;;;4991968;28;20410;-94
2022/09/23 06:43:21;;;;;;;19.83;10.88;;;11.50;99.90;;;;;;4975768;28;20293;-93
2022/09/23 06:45:52;;;;;;;17.08;11.70;;;11.60;99.90;;;;;;4979615;28;20688;-94
2022/09/23 06:48:18;;;;;;;18.88;11.90;;;11.70;99.90;;;;;;4978578;28;20548;-94
2022/09/23 06:50:44;;;;;;;18.38;12.05;;;11.80;99.90;;;;;;4977796;28;20206;-94
2022/09/23 06:53:11;;;;;;;14.63;10.43;;;11.80;99.90;;;;;;4998957;28;20195;-91
2022/09/23 06:55:37;;;;;;;12.70;10.02;;;12.00;99.90;;;;;;4978929;28;20199;-95
2022/09/23 06:58:03;;;;;;;12.87;9.70;;;12.10;99.90;;;;;;4966481;28;20223;-92
2022/09/23 07:00:29;;;;;;;14.13;10.07;;;12.10;99.90;;;;;;4994109;28;20204;-95
2022/09/23 07:02:55;;;;;;;16.70;13.00;;;12.20;99.90;;;;;;4990584;28;20526;-92
2022/09/23 07:05:21;;;;;;;17.03;11.00;;;12.30;99.90;;;;;;4977311;28;20441;-93
2022/09/23 07:07:47;;;;;;;14.50;10.37;;;12.30;99.90;;;;;;4988094;28;20421;-92
2022/09/23 07:10:13;;;;;;;11.43;8.98;;;12.40;99.90;;;;;;4995004;28;20577;-94
2022/09/23 07:12:39;;;;;;;13.35;9.80;;;12.50;99.90;;;;;;4992100;28;20183;-95
2022/09/23 07:15:05;;;;;;;12.97;9.17;;;12.60;99.90;;;;;;4991646;28;20200;-93
2022/09/23 07:17:31;;;;;;;13.40;8.87;;;12.70;99.90;;;;;;4974063;28;20219;-95
2022/09/23 07:19:57;;;;;;;13.77;10.07;;;12.80;99.90;;;;;;4992821;28;20853;-94
2022/09/23 07:22:23;;;;;;;11.77;8.73;;;12.90;99.90;;;;;;4978457;28;20213;-95
2022/09/23 07:24:54;;;;;;;9.77;7.03;;;13.00;99.90;;;;;;4979118;28;20547;-95
2022/09/23 07:27:22;;;;;;;11.37;8.53;;;13.10;99.90;;;;;;4994503;28;20425;-94
2022/09/23 07:29:49;;;;;;;10.97;8.50;;;13.20;99.90;;;;;;4978961;28;20500;-92
2022/09/23 07:32:15;;;;;;;10.90;8.00;;;13.40;99.90;;;;;;4987248;28;20422;-95
2022/09/23 07:34:42;;;;;;;10.60;8.07;;;13.50;99.90;;;;;;4986760;28;20476;-93
2022/09/23 07:37:08;;;;;;;8.87;7.13;;;13.60;99.90;;;;;;4976801;28;20616;-95
2022/09/23 07:39:35;;;;;;;9.40;7.33;;;13.70;99.90;;;;;;4981150;28;20485;-93
2022/09/23 07:42:02;;;;;;;9.47;7.30;;;13.80;99.90;;;;;;4978862;28;20421;-93
2022/09/23 07:44:30;;;;;;;11.57;7.97;;;14.00;99.90;;;;;;4980108;28;20624;-94
2022/09/23 07:46:56;;;;;;;11.50;7.37;;;14.10;99.90;;;;;;4975894;28;20409;-94
2022/09/23 07:49:21;;;;;;;9.30;7.50;;;14.30;99.90;;;;;;4963853;28;20608;-94
2022/09/23 07:51:47;;;;;;;7.73;6.80;;;14.40;99.90;;;;;;4966864;28;20179;-94
2022/09/23 07:54:15;;;;;;;11.80;7.10;;;14.50;99.90;;;;;;4992523;28;20295;-92
2022/09/23 07:56:41;;;;;;;8.50;6.10;;;14.50;99.90;;;;;;4975687;28;20495;-95
2022/09/23 07:59:11;;;;;;;7.57;6.13;;;14.70;99.90;;;;;;4984103;28;20481;-95
2022/09/23 08:01:40;;;;;;;8.23;6.57;;;14.80;99.90;;;;;;4993993;28;20926;-95
2022/09/23 08:04:12;;;;;;;6.87;6.17;;;15.00;99.90;;;;;;4971027;28;20454;-93
2022/09/23 08:06:46;;;;;;;7.43;6.30;;;15.10;99.90;;;;;;4959214;28;20421;-95
2022/09/23 08:09:13;;;;;;;8.33;5.20;;;15.30;99.90;;;;;;4992338;28;20441;-95
2022/09/23 08:11:40;;;;;;;6.07;5.23;;;15.60;99.90;;;;;;4990185;28;20418;-94
2022/09/23 08:14:07;;;;;;;7.30;6.00;;;16.20;99.90;;;;;;4976197;28;20455;-95
2022/09/23 08:16:33;;;;;;;6.90;5.53;;;16.80;99.90;;;;;;4974864;28;20445;-95
2022/09/23 08:18:58;;;;;;;7.37;5.70;;;17.70;99.90;;;;;;4992147;28;20524;-95
2022/09/23 08:21:24;;;;;;;6.30;5.70;;;18.60;99.90;;;;;;4992874;28;20465;-93
2022/09/23 08:23:50;;;;;;;5.60;4.47;;;19.40;99.90;;;;;;4984438;28;20183;-93
2022/09/23 08:26:16;;;;;;;7.00;5.10;;;20.20;99.90;;;;;;4989899;28;20225;-92
2022/09/23 08:28:46;;;;;;;5.20;4.60;;;21.00;99.90;;;;;;4984841;28;20500;-96
2022/09/23 08:31:13;;;;;;;5.80;5.30;;;21.70;99.90;;;;;;4975462;28;20414;-94
2022/09/23 08:33:39;;;;;;;5.53;5.03;;;22.30;99.90;;;;;;4982769;28;20414;-93
2022/09/23 08:36:06;;;;;;;4.37;3.90;;;23.00;99.90;;;;;;4979392;28;20901;-94
2022/09/23 08:38:32;;;;;;;4.43;4.03;;;23.40;99.90;;;;;;4996107;28;20465;-94
2022/09/23 08:41:33;;;;;;;4.80;4.27;;;23.60;99.90;;;;;;4968857;28;20991;-94
2022/09/23 08:44:05;;;;;;;5.00;4.60;;;23.40;99.90;;;;;;4964330;28;20532;-95
2022/09/23 08:46:37;;;;;;;5.20;4.33;;;23.00;99.90;;;;;;4976883;28;20428;-95
2022/09/23 08:49:06;;;;;;;6.00;4.30;;;22.70;99.90;;;;;;4973653;28;20466;-94
2022/09/23 08:51:45;;;;;;;5.37;4.83;;;22.20;99.90;;;;;;4967102;28;20429;-93
2022/09/23 08:54:12;;;;;;;4.30;3.80;;;21.80;99.90;;;;;;4995250;28;20853;-93
2022/09/23 08:56:41;;;;;;;5.17;4.67;;;21.50;99.90;;;;;;4978095;28;20976;-93
2022/09/23 08:59:31;;;;;;;4.83;4.30;;;21.00;99.90;;;;;;4970474;28;20528;-96
2022/09/23 09:02:04;;;;;;;5.80;4.40;;;20.70;99.90;;;;;;4982994;28;20484;-96
2022/09/23 09:04:35;;;;;;;6.03;4.20;;;20.50;99.90;;;;;;4978190;28;20473;-95
2022/09/23 09:07:07;;;;;;;6.00;4.57;;;20.20;99.90;;;;;;4982996;28;20430;-93
2022/09/23 09:09:44;;;;;;;6.03;4.50;;;19.90;99.90;;;;;;4982014;28;20471;-94
2022/09/23 09:12:19;;;;;;;5.10;4.40;;;19.80;99.90;;;;;;4977927;28;20456;-94
2022/09/23 09:15:01;;;;;;;5.13;4.63;;;19.70;99.90;;;;;;4978087;28;20999;-94
2022/09/23 09:17:51;;;;;;;7.40;3.90;;;19.50;99.90;;;;;;4982061;28;20425;-95
2022/09/23 09:20:33;;;;;;;4.70;4.20;;;19.40;99.90;;;;;;4978380;28;20974;-94
2022/09/23 09:22:59;;;;;;;7.23;4.13;;;19.20;99.90;;;;;;4977778;28;20419;-94
2022/09/23 09:25:51;;;;;;;4.27;3.83;;;19.10;99.90;;;;;;4977701;28;20457;-93
2022/09/23 09:28:34;;;;;;;5.33;4.40;;;19.00;99.90;;;;;;4976125;28;20787;-93
2022/09/23 09:31:01;;;;;;;4.63;4.23;;;18.90;99.90;;;;;;4976896;28;20445;-93
2022/09/23 09:33:35;;;;;;;5.47;4.43;;;18.80;99.90;;;;;;4983832;28;20450;-95
2022/09/23 09:36:38;;;;;;;5.20;4.30;;;18.70;99.90;;;;;;4999347;28;20506;-94
2022/09/23 09:39:05;;;;;;;4.17;3.73;;;18.50;99.90;;;;;;4963575;28;20474;-96
2022/09/23 09:41:31;;;;;;;4.83;3.80;;;18.50;99.90;;;;;;4981429;28;20460;-92
2022/09/23 09:44:02;;;;;;;5.63;4.53;;;18.40;99.90;;;;;;5004039;28;20817;-95
2022/09/23 09:46:54;;;;;;;7.30;5.10;;;18.30;99.90;;;;;;4976081;28;20401;-93
2022/09/23 09:49:38;;;;;;;8.07;5.90;;;18.20;99.90;;;;;;4990042;28;20556;-92
2022/09/23 09:52:21;;;;;;;5.33;4.63;;;18.10;99.90;;;;;;4997683;28;20429;-92
2022/09/23 09:54:48;;;;;;;4.77;4.17;;;18.00;99.90;;;;;;4995055;28;20819;-92
2022/09/23 09:57:38;;;;;;;8.23;6.80;;;18.00;99.90;;;;;;4976641;28;20435;-95
2022/09/23 10:00:26;;;;;;;5.63;4.80;;;17.90;99.90;;;;;;4982598;28;20452;-96
2022/09/23 10:03:20;;;;;;;5.90;4.77;;;17.90;99.90;;;;;;4975841;28;20833;-92
2022/09/23 10:05:48;;;;;;;6.57;5.07;;;17.90;99.90;;;;;;4973823;28;20467;-93
2022/09/23 10:08:35;;;;;;;6.37;4.40;;;17.80;99.90;;;;;;4973974;28;20423;-92
2022/09/23 10:11:15;;;;;;;6.10;4.60;;;17.80;99.90;;;;;;4996975;28;20472;-92
2022/09/23 10:14:17;;;;;;;5.73;4.60;;;17.80;99.90;;;;;;4994683;28;20462;-93
2022/09/23 10:17:00;;;;;;;5.30;4.63;;;17.80;99.90;;;;;;4983173;28;20422;-94
2022/09/23 10:19:28;;;;;;;4.70;4.30;;;17.80;99.90;;;;;;4995841;28;20505;-94
2022/09/23 10:22:00;;;;;;;6.33;5.20;;;17.80;99.90;;;;;;4978029;28;20418;-93
2022/09/23 10:24:32;;;;;;;6.60;5.43;;;17.80;99.90;;;;;;4973317;28;20461;-95
2022/09/23 10:27:03;;;;;;;4.90;4.00;;;17.70;99.90;;;;;;4981770;28;20469;-94
2022/09/23 10:29:32;;;;;;;4.97;4.47;;;17.70;99.90;;;;;;5000067;28;20458;-92
2022/09/23 10:32:25;;;;;;;5.20;4.40;;;17.70;99.90;;;;;;4990144;28;20425;-93
2022/09/23 10:35:07;;;;;;;5.33;4.37;;;17.70;99.90;;;;;;4988533;28;20470;-95
2022/09/23 10:37:54;;;;;;;4.80;4.27;;;17.60;99.90;;;;;;4983728;28;20477;-95
2022/09/23 10:49:39;;;;;;;5.53;4.23;;;17.50;99.90;;;;;;5000768;28;20433;-95
2022/09/23 10:52:26;;;;;;;5.40;3.87;;;17.50;99.90;;;;;;4976101;28;20450;-93
2022/09/23 10:55:17;;;;;;;6.10;4.37;;;17.50;99.90;;;;;;4984636;28;21000;-95
2022/09/23 10:57:55;;;;;;;4.93;4.53;;;17.60;99.90;;;;;;4975822;28;20473;-95
2022/09/23 11:00:56;;;;;;;7.70;5.40;;;17.60;99.90;;;;;;4979734;28;20463;-92
2022/09/23 11:04:08;;;;;;;7.67;5.57;;;17.60;99.90;;;;;;5002684;28;20449;-94
2022/09/23 11:07:19;;;;;;;6.80;5.27;;;17.70;99.90;;;;;;4922227;28;20544;-95
2022/09/23 11:10:16;;;;;;;7.83;6.30;;;17.70;99.90;;;;;;4970697;28;20962;-93
2022/09/23 11:12:57;;;;;;;5.30;4.80;;;17.70;99.90;;;;;;4985424;28;20433;-93
2022/09/23 11:15:54;;;;;;;6.50;5.63;;;17.70;99.90;;;;;;4980208;28;20527;-93
2022/09/23 11:18:28;;;;;;;7.27;5.33;;;17.70;99.90;;;;;;4977508;28;20451;-93
2022/09/23 11:21:07;;;;;;;5.20;4.40;;;17.70;99.90;;;;;;4980647;28;20508;-94
2022/09/23 11:23:33;;;;;;;6.70;5.17;;;17.80;99.90;;;;;;4985394;28;20430;-93
2022/09/23 11:26:29;;;;;;;6.10;5.07;;;17.80;99.90;;;;;;4982666;28;20554;-93
2022/09/23 11:29:19;;;;;;;5.70;5.20;;;17.80;99.90;;;;;;5004737;28;20214;-94
2022/09/23 11:32:06;;;;;;;5.77;5.27;;;17.80;99.90;;;;;;4998207;28;20488;-95
2022/09/23 11:34:32;;;;;;;6.53;5.50;;;17.90;99.90;;;;;;4989514;28;20441;-96
2022/09/23 11:37:12;;;;;;;6.00;4.50;;;18.00;99.90;;;;;;5003304;28;20436;-93
2022/09/23 11:39:45;;;;;;;6.90;5.47;;;18.00;99.90;;;;;;4998905;28;20532;-93
2022/09/23 11:42:34;;;;;;;6.03;3.90;;;18.00;99.90;;;;;;4982946;28;20438;-93
2022/09/23 11:45:46;;;;;;;6.37;4.40;;;18.10;99.90;;;;;;4988281;28;20523;-93
2022/09/23 11:48:19;;;;;;;4.77;4.27;;;18.00;99.90;;;;;;4944700;28;20433;-96
2022/09/23 11:51:00;;;;;;;4.73;4.20;;;18.00;99.90;;;;;;5001323;28;20469;-95
2022/09/23 11:53:44;;;;;;;5.10;4.60;;;18.00;99.90;;;;;;4982542;28;20425;-94
2022/09/23 11:56:31;;;;;;;11.40;4.40;;;18.10;99.90;;;;;;5012986;28;20433;-94
2022/09/23 11:59:03;;;;;;;5.37;4.87;;;18.10;99.90;;;;;;4988158;28;20457;-95
2022/09/23 12:02:06;;;;;;;5.70;3.80;;;18.10;99.90;;;;;;4977980;28;21033;-94
2022/09/23 12:04:41;;;;;;;6.77;4.37;;;18.20;99.90;;;;;;4958530;28;20442;-93
2022/09/23 12:07:07;;;;;;;4.53;3.90;;;18.30;99.90;;;;;;4981358;28;20476;-95
2022/09/23 12:09:41;;;;;;;6.20;3.70;;;18.30;99.90;;;;;;4998932;28;20445;-95
2022/09/23 12:12:18;;;;;;;5.10;3.87;;;18.30;99.90;;;;;;4983808;28;20192;-95
2022/09/23 12:15:15;;;;;;;3.33;2.90;;;18.30;99.90;;;;;;4980611;28;20461;-96
2022/09/23 12:18:11;;;;;;;4.83;3.70;;;18.30;99.90;;;;;;4986257;28;20464;-96
2022/09/23 12:21:06;;;;;;;4.93;3.90;;;18.40;99.90;;;;;;5005394;28;20985;-93
2022/09/23 12:23:42;;;;;;;8.17;4.07;;;18.40;99.90;;;;;;4971832;28;20441;-93
2022/09/23 12:26:15;;;;;;;5.10;3.90;;;18.50;99.90;;;;;;4980208;28;20454;-93
2022/09/23 12:28:47;;;;;;;8.43;4.13;;;18.50;99.90;;;;;;4980673;28;20502;-93
2022/09/23 12:31:17;;;;;;;6.10;4.20;;;18.60;99.90;;;;;;4977471;28;20805;-95
2022/09/23 12:33:52;;;;;;;4.70;3.60;;;18.60;99.90;;;;;;4999603;28;21079;-95
2022/09/23 12:36:33;;;;;;;4.33;3.80;;;18.60;99.90;;;;;;4987487;28;20833;-94
2022/09/23 12:39:06;;;;;;;5.30;4.17;;;18.70;99.90;;;;;;4990829;28;20519;-94
2022/09/23 12:41:41;;;;;;;4.53;3.93;;;18.70;99.90;;;;;;4968302;28;20465;-93
2022/09/23 12:44:07;;;;;;;5.07;3.90;;;18.80;99.90;;;;;;4973524;28;20452;-93
2022/09/23 12:46:33;;;;;;;4.80;3.40;;;18.80;99.90;;;;;;4975787;28;20532;-95
2022/09/23 12:49:01;;;;;;;5.47;3.93;;;18.80;99.90;;;;;;4984985;28;20447;-95
2022/09/23 12:51:33;;;;;;;4.87;3.70;;;18.80;99.70;;;;;;4988575;28;20511;-93
2022/09/23 12:54:20;;;;;;;34.13;18.50;;;18.80;99.90;;;;;;4985625;28;20486;-93
2022/09/23 12:56:54;;;;;;;5.30;4.60;;;18.90;99.90;;;;;;4973689;28;20815;-96
2022/09/23 12:59:29;;;;;;;7.40;4.90;;;18.90;99.90;;;;;;4973379;28;20482;-93
2022/09/23 13:01:56;;;;;;;5.07;3.93;;;18.90;99.90;;;;;;4972151;28;20437;-95
2022/09/23 13:07:32;;;;;;;5.73;3.93;;;19.00;99.90;;;;;;4988283;28;20461;-92
2022/09/23 13:10:28;;;;;;;6.20;4.87;;;19.10;99.90;;;;;;4991711;28;20601;-94
2022/09/23 13:12:55;;;;;;;4.30;3.70;;;19.10;99.90;;;;;;4977647;28;20502;-93
2022/09/23 13:15:31;;;;;;;4.00;3.70;;;19.10;99.90;;;;;;4991422;28;20497;-88
2022/09/23 13:18:19;;;;;;;5.43;4.73;;;19.10;99.90;;;;;;4982788;28;20466;-94
2022/09/23 13:20:52;;;;;;;4.87;4.47;;;19.10;99.90;;;;;;4980930;28;20511;-89
2022/09/23 13:23:25;;;;;;;5.70;3.90;;;19.10;99.70;;;;;;4973626;28;20452;-89
2022/09/23 13:25:55;;;;;;;8.37;6.43;;;19.10;99.30;;;;;;4992762;28;20942;-90
2022/09/23 13:28:54;;;;;;;4.80;4.10;;;19.10;99.70;;;;;;4992183;28;20415;-91
2022/09/23 13:31:20;;;;;;;4.63;3.77;;;19.10;99.70;;;;;;4990448;28;20531;-88